createdAt,value
2019-02-19T00:01:57.890Z,99.90
2019-02-19T00:04:24.270Z,99.90
2019-02-19T00:06:50.475Z,99.90
2019-02-19T00:09:16.707Z,99.90
2019-02-19T00:11:42.912Z,99.90
2019-02-19T00:14:09.132Z,99.90
2019-02-19T00:16:35.690Z,99.90
2019-02-19T00:19:02.010Z,99.90
2019-02-19T00:21:28.214Z,99.90
2019-02-19T00:23:54.443Z,99.90
2019-02-19T00:26:20.642Z,99.90
2019-02-19T00:28:46.975Z,99.90
2019-02-19T00:31:13.281Z,99.90
2019-02-19T00:33:39.492Z,99.90
2019-02-19T00:36:05.818Z,99.90
2019-02-19T00:38:32.042Z,99.90
2019-02-19T00:40:58.278Z,99.90
2019-02-19T00:43:30.598Z,99.90
2019-02-19T00:45:56.824Z,99.90
2019-02-19T00:48:23.035Z,99.90
2019-02-19T00:50:49.250Z,99.90
2019-02-19T00:53:15.459Z,99.90
2019-02-19T00:55:41.681Z,99.90
2019-02-19T00:58:07.891Z,99.90
2019-02-19T01:00:34.118Z,99.90
2019-02-19T01:03:00.333Z,99.90
2019-02-19T01:05:26.749Z,99.90
2019-02-19T01:07:52.953Z,99.90
2019-02-19T01:10:19.158Z,99.90
2019-02-19T01:12:45.384Z,99.90
2019-02-19T01:15:11.615Z,99.90
2019-02-19T01:17:38.420Z,99.90
2019-02-19T01:20:07.618Z,99.90
2019-02-19T01:22:33.946Z,99.90
2019-02-19T01:25:00.202Z,99.90
2019-02-19T01:27:26.482Z,99.90
2019-02-19T01:29:52.682Z,99.90
2019-02-19T01:32:18.911Z,99.90
2019-02-19T01:34:45.385Z,99.90
2019-02-19T01:37:11.626Z,99.90
2019-02-19T01:39:37.834Z,99.90
2019-02-19T01:42:06.978Z,99.90
2019-02-19T01:44:33.186Z,99.90
2019-02-19T01:46:59.390Z,99.90
2019-02-19T01:49:25.638Z,99.90
2019-02-19T01:51:51.853Z,99.90
2019-02-19T01:54:18.063Z,99.90
2019-02-19T01:56:44.272Z,99.90
2019-02-19T01:59:10.496Z,99.90
2019-02-19T02:01:36.698Z,99.90
2019-02-19T02:04:03.034Z,99.90
2019-02-19T02:06:29.242Z,99.90
2019-02-19T02:08:55.758Z,99.90
2019-02-19T02:11:21.967Z,99.90
2019-02-19T02:13:48.454Z,99.90
2019-02-19T02:16:14.986Z,99.90
2019-02-19T02:18:41.206Z,99.90
2019-02-19T02:21:07.414Z,99.90
2019-02-19T02:23:33.643Z,99.90
2019-02-19T02:25:59.842Z,99.90
2019-02-19T02:28:26.073Z,99.90
2019-02-19T02:30:52.281Z,99.90
2019-02-19T02:33:18.587Z,99.90
2019-02-19T02:35:44.943Z,99.90
2019-02-19T02:38:11.166Z,99.90
2019-02-19T02:40:37.391Z,99.90
2019-02-19T02:43:03.709Z,99.90
2019-02-19T02:45:29.953Z,99.90
2019-02-19T02:47:56.150Z,99.90
2019-02-19T02:50:22.381Z,99.90
2019-02-19T02:52:48.582Z,99.90
2019-02-19T02:55:14.803Z,99.90
2019-02-19T02:57:41.126Z,99.90
2019-02-19T03:00:09.562Z,99.90
2019-02-19T03:02:35.771Z,99.90
2019-02-19T03:05:02.399Z,99.90
2019-02-19T03:07:30.494Z,99.90
2019-02-19T03:09:56.727Z,99.90
2019-02-19T03:12:23.295Z,99.90
2019-02-19T03:14:49.598Z,99.90
2019-02-19T03:17:15.810Z,99.90
2019-02-19T03:19:42.154Z,99.90
2019-02-19T03:22:08.379Z,99.90
2019-02-19T03:24:34.590Z,99.90
2019-02-19T03:27:00.832Z,99.90
2019-02-19T03:29:27.060Z,99.90
2019-02-19T03:31:53.295Z,99.90
2019-02-19T03:34:19.502Z,99.90
2019-02-19T03:36:45.751Z,99.90
2019-02-19T03:39:11.959Z,99.90
2019-02-19T03:41:38.187Z,99.90
2019-02-19T03:44:04.391Z,99.90
2019-02-19T03:46:30.592Z,99.90
2019-02-19T03:48:56.821Z,99.90
2019-02-19T03:51:23.034Z,99.90
2019-02-19T03:53:49.360Z,99.90
2019-02-19T03:56:15.567Z,99.90
2019-02-19T03:58:41.790Z,99.90
2019-02-19T04:01:08.295Z,99.90
2019-02-19T04:03:34.718Z,99.90
2019-02-19T04:06:01.030Z,99.90
2019-02-19T04:08:27.246Z,99.90
2019-02-19T04:10:53.448Z,99.90
2019-02-19T04:13:22.478Z,99.90
2019-02-19T04:15:48.696Z,99.90
2019-02-19T04:18:14.918Z,99.90
2019-02-19T04:20:42.409Z,99.90
2019-02-19T04:23:08.648Z,99.90
2019-02-19T04:25:34.856Z,99.90
2019-02-19T04:28:02.988Z,99.90
2019-02-19T04:30:29.291Z,99.90
2019-02-19T04:32:55.546Z,99.90
2019-02-19T04:35:21.862Z,99.90
2019-02-19T04:37:48.094Z,99.90
2019-02-19T04:40:14.415Z,99.90
2019-02-19T04:42:40.747Z,99.90
2019-02-19T04:45:07.287Z,99.90
2019-02-19T04:47:33.521Z,99.90
2019-02-19T04:49:59.731Z,99.90
2019-02-19T04:52:25.940Z,99.90
2019-02-19T04:54:52.172Z,99.90
2019-02-19T04:57:18.489Z,99.90
2019-02-19T04:59:44.814Z,99.90
2019-02-19T05:02:11.038Z,99.90
2019-02-19T05:04:37.254Z,99.90
2019-02-19T05:07:03.463Z,99.90
2019-02-19T05:09:29.696Z,99.90
2019-02-19T05:11:55.904Z,99.90
2019-02-19T05:14:22.141Z,99.90
2019-02-19T05:16:48.445Z,99.90
2019-02-19T05:19:14.675Z,99.90
2019-02-19T05:21:40.879Z,99.90
2019-02-19T05:24:07.087Z,99.90
2019-02-19T05:26:33.318Z,99.90
2019-02-19T05:28:59.547Z,99.90
2019-02-19T05:31:26.063Z,99.90
2019-02-19T05:33:52.270Z,99.90
2019-02-19T05:36:18.598Z,99.90
2019-02-19T05:38:44.805Z,99.90
2019-02-19T05:41:11.355Z,99.90
2019-02-19T05:43:37.571Z,99.90
2019-02-19T05:46:03.804Z,99.90
2019-02-19T05:48:30.213Z,99.90
2019-02-19T05:50:56.526Z,99.90
2019-02-19T05:53:22.744Z,99.90
2019-02-19T05:55:48.974Z,99.90
2019-02-19T05:58:15.178Z,99.90
2019-02-19T06:00:41.420Z,99.90
2019-02-19T06:03:07.651Z,99.90
2019-02-19T06:05:33.963Z,99.90
2019-02-19T06:08:00.185Z,99.90
2019-02-19T06:10:26.394Z,99.90
2019-02-19T06:12:52.623Z,99.90
2019-02-19T06:15:18.939Z,99.90
2019-02-19T06:17:45.177Z,99.90
2019-02-19T06:20:11.378Z,99.90
2019-02-19T06:22:37.604Z,99.90
2019-02-19T06:25:06.324Z,99.90
2019-02-19T06:27:32.682Z,99.90
2019-02-19T06:29:59.290Z,99.90
2019-02-19T06:32:25.526Z,99.90
2019-02-19T06:34:51.739Z,99.90
2019-02-19T06:37:17.942Z,99.90
2019-02-19T06:39:44.174Z,99.90
2019-02-19T06:42:10.415Z,99.90
2019-02-19T06:44:36.639Z,99.90
2019-02-19T06:47:06.889Z,99.90
2019-02-19T06:49:31.522Z,99.90
2019-02-19T06:51:57.718Z,99.90
2019-02-19T06:54:23.942Z,99.90
2019-02-19T06:56:50.172Z,99.90
2019-02-19T06:59:16.422Z,99.90
2019-02-19T07:01:47.305Z,99.90
2019-02-19T07:04:18.443Z,99.90
2019-02-19T07:06:44.655Z,99.90
2019-02-19T07:09:10.874Z,99.90
2019-02-19T07:11:37.168Z,99.90
2019-02-19T07:14:03.386Z,99.90
2019-02-19T07:16:32.149Z,99.90
2019-02-19T07:18:58.378Z,99.90
2019-02-19T07:21:24.582Z,99.90
2019-02-19T07:23:50.815Z,99.90
2019-02-19T07:26:17.039Z,99.90
2019-02-19T07:28:43.272Z,99.90
2019-02-19T07:31:09.480Z,99.90
2019-02-19T07:33:36.620Z,99.90
2019-02-19T07:36:02.922Z,99.90
2019-02-19T07:38:29.126Z,99.90
2019-02-19T07:40:58.332Z,99.90
2019-02-19T07:43:24.541Z,99.90
2019-02-19T07:45:52.306Z,99.90
2019-02-19T07:48:18.723Z,99.90
2019-02-19T07:50:45.070Z,99.90
2019-02-19T07:53:11.274Z,99.90
2019-02-19T07:55:37.511Z,99.90
2019-02-19T07:58:03.718Z,99.90
2019-02-19T08:00:29.946Z,99.90
2019-02-19T08:02:56.152Z,99.90
2019-02-19T08:05:22.530Z,99.90
2019-02-19T08:07:48.734Z,99.90
2019-02-19T08:10:14.938Z,99.90
2019-02-19T08:12:41.165Z,99.90
2019-02-19T08:15:09.727Z,99.90
2019-02-19T08:17:35.958Z,99.90
2019-02-19T08:20:03.059Z,99.90
2019-02-19T08:22:29.290Z,99.90
2019-02-19T08:24:55.496Z,99.90
2019-02-19T08:27:22.135Z,99.90
2019-02-19T08:29:48.353Z,99.90
2019-02-19T08:32:14.866Z,99.90
2019-02-19T08:34:41.057Z,99.90
2019-02-19T08:37:07.582Z,99.90
2019-02-19T08:39:33.795Z,99.90
2019-02-19T08:41:59.995Z,99.90
2019-02-19T08:44:26.228Z,99.90
2019-02-19T08:46:52.427Z,99.90
2019-02-19T08:49:18.657Z,99.90
2019-02-19T08:51:44.890Z,99.90
2019-02-19T08:54:11.114Z,99.90
2019-02-19T08:56:37.327Z,99.90
2019-02-19T08:59:03.559Z,99.90
2019-02-19T09:01:29.767Z,99.90
2019-02-19T09:03:55.990Z,99.90
2019-02-19T09:06:22.204Z,99.90
2019-02-19T09:08:48.431Z,99.90
2019-02-19T09:11:14.653Z,99.90
2019-02-19T09:13:40.984Z,99.90
2019-02-19T09:16:07.191Z,99.90
2019-02-19T09:18:33.415Z,99.90
2019-02-19T09:20:59.638Z,99.90
2019-02-19T09:23:25.867Z,99.90
2019-02-19T09:25:52.094Z,99.90
2019-02-19T09:28:18.316Z,99.90
2019-02-19T09:30:44.523Z,99.90
2019-02-19T09:33:10.755Z,99.90
2019-02-19T09:35:36.980Z,99.90
2019-02-19T09:38:03.180Z,99.90
2019-02-19T09:40:29.406Z,99.90
2019-02-19T09:42:55.623Z,99.90
2019-02-19T09:45:21.851Z,99.90
2019-02-19T09:47:48.066Z,99.90
2019-02-19T09:50:14.526Z,99.90
2019-02-19T09:52:40.735Z,99.90
2019-02-19T09:55:07.163Z,99.90
2019-02-19T09:57:33.377Z,99.90
2019-02-19T09:59:59.594Z,99.90
2019-02-19T10:02:25.811Z,99.90
2019-02-19T10:04:52.085Z,99.90
2019-02-19T10:07:19.409Z,99.90
2019-02-19T10:09:45.818Z,99.90
2019-02-19T10:12:12.037Z,99.90
2019-02-19T10:14:38.244Z,99.90
2019-02-19T10:17:04.506Z,99.90
2019-02-19T10:19:30.718Z,99.90
2019-02-19T10:21:56.943Z,99.90
2019-02-19T10:24:23.154Z,99.90
2019-02-19T10:26:49.756Z,99.90
2019-02-19T10:29:16.207Z,99.90
2019-02-19T10:31:42.436Z,99.90
2019-02-19T10:34:08.867Z,99.90
2019-02-19T10:36:35.091Z,99.90
2019-02-19T10:39:01.302Z,99.90
2019-02-19T10:41:27.535Z,99.90
2019-02-19T10:43:53.839Z,99.90
2019-02-19T10:46:20.056Z,99.90
2019-02-19T10:48:46.365Z,99.90
2019-02-19T10:51:12.594Z,99.90
2019-02-19T10:53:53.974Z,99.90
2019-02-19T10:56:20.209Z,99.90
2019-02-19T10:58:46.410Z,99.90
2019-02-19T11:01:12.814Z,99.90
2019-02-19T11:03:39.042Z,99.90
2019-02-19T11:06:05.270Z,99.90
2019-02-19T11:08:31.506Z,99.90
2019-02-19T11:10:57.819Z,99.90
2019-02-19T11:13:24.038Z,99.90
2019-02-19T11:15:50.276Z,99.90
2019-02-19T11:18:16.544Z,99.90
2019-02-19T11:20:42.877Z,99.90
2019-02-19T11:23:09.451Z,99.90
2019-02-19T11:25:35.662Z,99.90
2019-02-19T11:28:01.871Z,99.90
2019-02-19T11:30:28.095Z,99.90
2019-02-19T11:32:54.294Z,99.90
2019-02-19T11:35:20.562Z,99.90
2019-02-19T11:37:46.766Z,99.90
2019-02-19T11:40:13.290Z,99.90
2019-02-19T11:42:39.503Z,99.90
2019-02-19T11:45:11.759Z,99.90
2019-02-19T11:47:38.162Z,99.90
2019-02-19T11:50:05.692Z,99.90
2019-02-19T11:52:31.903Z,99.90
2019-02-19T11:54:58.126Z,99.90
2019-02-19T11:57:24.334Z,99.90
2019-02-19T11:59:50.567Z,99.90
2019-02-19T12:02:16.982Z,99.90
2019-02-19T12:04:43.215Z,99.90
2019-02-19T12:07:09.454Z,99.90
2019-02-19T12:09:35.658Z,99.90
2019-02-19T12:12:01.885Z,99.90
2019-02-19T12:14:28.086Z,99.90
2019-02-19T12:16:54.319Z,99.90
2019-02-19T12:19:20.531Z,99.90
2019-02-19T12:21:46.775Z,99.90
2019-02-19T12:24:12.983Z,99.90
2019-02-19T12:26:39.214Z,99.90
2019-02-19T12:29:05.411Z,99.90
2019-02-19T12:31:31.634Z,99.90
2019-02-19T12:33:57.842Z,99.90
2019-02-19T12:36:24.085Z,99.90
2019-02-19T12:38:50.283Z,99.90
2019-02-19T12:41:16.491Z,99.90
2019-02-19T12:43:42.714Z,99.90
2019-02-19T12:46:08.914Z,99.90
2019-02-19T12:48:35.143Z,99.90
2019-02-19T12:51:01.586Z,99.90
2019-02-19T12:53:27.815Z,99.90
2019-02-19T12:55:54.013Z,99.90
2019-02-19T12:58:20.253Z,99.90
2019-02-19T13:00:47.530Z,99.90
2019-02-19T13:03:13.730Z,99.90
2019-02-19T13:05:40.047Z,99.90
2019-02-19T13:08:06.268Z,99.90
2019-02-19T13:10:32.482Z,99.90
2019-02-19T13:12:58.689Z,99.90
2019-02-19T13:15:24.918Z,99.90
2019-02-19T13:17:51.121Z,99.90
2019-02-19T13:20:17.705Z,99.90
2019-02-19T13:22:43.933Z,99.90
2019-02-19T13:25:10.964Z,99.90
2019-02-19T13:27:37.162Z,99.90
2019-02-19T13:30:18.179Z,99.90
2019-02-19T13:32:44.552Z,99.90
2019-02-19T13:35:11.927Z,99.90
2019-02-19T13:37:38.146Z,99.90
2019-02-19T13:40:13.926Z,99.90
2019-02-19T13:42:40.262Z,99.90
2019-02-19T13:45:09.292Z,99.90
2019-02-19T13:47:35.619Z,99.90
2019-02-19T13:50:02.322Z,99.90
2019-02-19T13:52:30.445Z,99.90
2019-02-19T13:54:56.650Z,99.90
2019-02-19T13:57:22.978Z,99.90
2019-02-19T13:59:49.186Z,99.90
2019-02-19T14:02:15.582Z,99.90
2019-02-19T14:04:41.801Z,99.90
2019-02-19T14:07:08.001Z,99.90
2019-02-19T14:09:34.231Z,99.90
2019-02-19T14:12:00.443Z,99.90
2019-02-19T14:14:28.683Z,99.90
2019-02-19T14:16:56.810Z,99.90
2019-02-19T14:19:24.929Z,99.90
2019-02-19T14:22:18.597Z,99.90
2019-02-19T14:25:03.460Z,99.90
2019-02-19T14:27:31.589Z,99.90
2019-02-19T14:30:18.439Z,99.90
2019-02-19T14:32:46.678Z,99.90
2019-02-19T14:35:31.642Z,99.90
2019-02-19T14:45:34.806Z,99.90
2019-02-19T14:48:19.558Z,99.90
2019-02-19T14:50:50.832Z,98.30
2019-02-19T14:53:19.043Z,93.10
2019-02-19T14:56:03.774Z,84.20
2019-02-19T14:58:31.907Z,73.50
2019-02-19T15:01:03.052Z,66.70
2019-02-19T15:03:46.235Z,56.50
2019-02-19T15:06:14.419Z,53.60
2019-02-19T15:08:54.997Z,50.80
2019-02-19T15:11:25.890Z,46.70
2019-02-19T15:14:10.857Z,48.20
2019-02-19T15:16:41.778Z,48.00
2019-02-19T15:19:18.384Z,46.20
2019-02-19T15:21:42.839Z,45.80
2019-02-19T15:24:16.806Z,47.80
2019-02-19T15:26:50.614Z,48.00
2019-02-19T15:29:18.730Z,46.70
2019-02-19T15:31:52.923Z,46.50
2019-02-19T15:34:23.795Z,46.70
2019-02-19T15:37:10.671Z,45.90
2019-02-19T15:39:39.062Z,47.60
2019-02-19T15:42:07.199Z,47.40
2019-02-19T15:44:47.346Z,47.70
2019-02-19T15:47:32.367Z,46.40
2019-02-19T15:50:06.272Z,47.80
2019-02-19T15:52:43.219Z,46.10
2019-02-19T15:55:11.403Z,45.00
2019-02-19T15:57:39.538Z,46.00
2019-02-19T16:00:26.308Z,45.30
2019-02-19T16:02:54.715Z,46.50
2019-02-19T16:05:32.331Z,49.30
2019-02-19T16:08:03.307Z,50.40
2019-02-19T16:10:34.160Z,57.00
2019-02-19T16:13:08.540Z,68.20
2019-02-19T16:15:42.651Z,85.50
2019-02-19T16:18:26.546Z,95.80
2019-02-19T16:21:03.704Z,99.10
2019-02-19T16:23:31.827Z,99.90
2019-02-19T16:26:05.736Z,99.90
2019-02-19T16:28:36.872Z,99.90
2019-02-19T16:31:13.834Z,99.90
2019-02-19T16:33:41.974Z,99.90
2019-02-19T16:36:19.117Z,99.90
2019-02-19T16:38:50.006Z,99.90
2019-02-19T16:41:21.173Z,99.90
2019-02-19T16:43:58.194Z,99.90
2019-02-19T16:46:38.359Z,99.90
2019-02-19T16:49:06.699Z,99.90
2019-02-19T16:51:37.570Z,99.90
2019-02-19T16:54:05.894Z,99.90
2019-02-19T16:56:37.022Z,99.90
2019-02-19T16:59:17.215Z,99.90
2019-02-19T17:01:54.732Z,99.90
2019-02-19T17:04:26.186Z,99.90
2019-02-19T17:06:54.318Z,99.90
2019-02-19T17:09:22.463Z,99.90
2019-02-19T17:11:53.658Z,99.90
2019-02-19T17:14:33.811Z,99.90
2019-02-19T17:17:08.044Z,99.90
2019-02-19T17:19:55.066Z,99.90
2019-02-19T17:22:41.254Z,99.90
2019-02-19T17:25:12.105Z,99.90
2019-02-19T17:27:41.010Z,99.90
2019-02-19T17:30:25.579Z,99.90
2019-02-19T17:32:59.759Z,99.90
2019-02-19T17:35:30.983Z,99.90
2019-02-19T17:38:18.802Z,99.90
2019-02-19T17:41:01.913Z,99.90
2019-02-19T17:43:42.166Z,99.90
2019-02-19T17:46:11.018Z,99.90
2019-02-19T17:48:39.168Z,99.90
2019-02-19T17:51:24.095Z,99.90
2019-02-19T17:53:52.335Z,99.90
2019-02-19T17:56:26.345Z,99.90
2019-02-19T17:58:57.822Z,99.90
2019-02-19T18:01:26.158Z,99.90
2019-02-19T18:03:54.310Z,99.90
2019-02-19T18:06:34.108Z,99.90
2019-02-19T18:09:05.332Z,99.90
2019-02-19T18:11:39.479Z,99.90
2019-02-19T18:14:10.620Z,99.90
2019-02-19T18:16:38.765Z,99.90
2019-02-19T18:19:05.101Z,99.90
2019-02-19T18:21:31.298Z,99.90
2019-02-19T18:23:57.526Z,99.90
2019-02-19T18:26:23.748Z,99.90
2019-02-19T18:28:49.990Z,99.90
2019-02-19T18:31:16.242Z,99.90
2019-02-19T18:33:42.506Z,99.90
2019-02-19T18:36:11.606Z,99.90
2019-02-19T18:38:37.826Z,99.90
2019-02-19T18:41:04.256Z,99.90
2019-02-19T18:43:30.549Z,99.90
2019-02-19T18:45:56.866Z,99.90
2019-02-19T18:48:23.120Z,99.90
2019-02-19T18:50:58.161Z,99.90
2019-02-19T18:53:17.457Z,99.90
2019-02-19T18:55:43.886Z,99.90
2019-02-19T18:58:10.154Z,99.90
2019-02-19T19:00:36.389Z,99.90
2019-02-19T19:03:02.991Z,99.90
2019-02-19T19:05:30.028Z,99.90
2019-02-19T19:07:56.661Z,99.90
2019-02-19T19:10:22.983Z,99.90
2019-02-19T19:12:49.200Z,99.90
2019-02-19T19:15:15.432Z,99.90
2019-02-19T19:17:41.644Z,99.90
2019-02-19T19:20:09.874Z,99.90
2019-02-19T19:22:36.122Z,99.90
2019-02-19T19:25:03.491Z,99.90
2019-02-19T19:27:29.771Z,99.90
2019-02-19T19:29:56.099Z,99.90
2019-02-19T19:32:22.346Z,99.90
2019-02-19T19:34:48.696Z,99.90
2019-02-19T19:37:14.909Z,99.90
2019-02-19T19:39:41.299Z,99.90
2019-02-19T19:42:08.015Z,99.90
2019-02-19T19:44:34.228Z,99.90
2019-02-19T19:47:00.461Z,99.90
2019-02-19T19:49:26.683Z,99.90
2019-02-19T19:51:53.012Z,99.90
2019-02-19T19:54:19.318Z,99.90
2019-02-19T19:56:45.554Z,99.90
2019-02-19T19:59:11.756Z,99.90
2019-02-19T20:01:38.033Z,99.90
2019-02-19T20:04:04.238Z,99.90
2019-02-19T20:06:30.484Z,99.90
2019-02-19T20:08:56.694Z,99.90
2019-02-19T20:11:22.932Z,99.90
2019-02-19T20:13:49.149Z,99.90
2019-02-19T20:16:15.482Z,99.90
2019-02-19T20:18:41.699Z,99.90
2019-02-19T20:21:07.925Z,99.90
2019-02-19T20:23:34.144Z,99.90
2019-02-19T20:26:00.354Z,99.90
2019-02-19T20:28:26.607Z,99.90
2019-02-19T20:30:52.927Z,99.90
2019-02-19T20:33:19.212Z,99.90
2019-02-19T20:35:45.623Z,99.90
2019-02-19T20:38:11.850Z,99.90
2019-02-19T20:40:38.064Z,99.90
2019-02-19T20:43:04.327Z,99.90
2019-02-19T20:45:30.598Z,99.90
2019-02-19T20:47:56.830Z,99.90
2019-02-19T20:50:23.044Z,99.90
2019-02-19T20:52:49.274Z,99.90
2019-02-19T20:55:15.510Z,99.90
2019-02-19T20:57:41.736Z,99.90
2019-02-19T21:00:12.264Z,99.90
2019-02-19T21:02:38.641Z,99.90
2019-02-19T21:05:08.139Z,99.90
2019-02-19T21:07:34.403Z,99.90
2019-02-19T21:10:00.632Z,99.90
2019-02-19T21:12:26.996Z,99.90
2019-02-19T21:14:53.203Z,99.90
2019-02-19T21:17:19.415Z,99.90
2019-02-19T21:19:45.780Z,99.90
2019-02-19T21:22:12.519Z,99.90
2019-02-19T21:24:38.887Z,99.90
2019-02-19T21:27:05.127Z,99.90
2019-02-19T21:29:31.640Z,99.90
2019-02-19T21:31:57.839Z,99.90
2019-02-19T21:34:24.072Z,99.90
2019-02-19T21:36:50.554Z,99.90
2019-02-19T21:39:16.794Z,99.90
2019-02-19T21:41:43.227Z,99.90
2019-02-19T21:44:09.466Z,99.90
2019-02-19T21:46:35.679Z,99.90
2019-02-19T21:49:01.885Z,99.90
2019-02-19T21:51:28.126Z,99.90
2019-02-19T21:53:54.428Z,99.90
2019-02-19T21:56:20.645Z,99.90
2019-02-19T21:58:47.194Z,99.90
2019-02-19T22:01:13.490Z,99.90
2019-02-19T22:03:39.698Z,99.90
2019-02-19T22:06:06.160Z,99.90
2019-02-19T22:08:32.374Z,99.90
2019-02-19T22:10:58.598Z,99.90
2019-02-19T22:13:24.825Z,99.90
2019-02-19T22:15:51.060Z,99.90
2019-02-19T22:18:17.353Z,99.90
2019-02-19T22:20:51.058Z,99.90
2019-02-19T22:23:17.267Z,99.90
2019-02-19T22:25:43.593Z,99.90
2019-02-19T22:28:09.806Z,99.90
2019-02-19T22:30:36.041Z,99.90
2019-02-19T22:33:02.344Z,99.90
2019-02-19T22:35:28.569Z,99.90
2019-02-19T22:37:54.778Z,99.90
2019-02-19T22:40:21.001Z,99.90
2019-02-19T22:42:47.211Z,99.90
2019-02-19T22:45:13.525Z,99.90
2019-02-19T22:47:39.733Z,99.90
2019-02-19T22:50:07.770Z,99.90
2019-02-19T22:52:33.965Z,99.90
2019-02-19T22:55:04.854Z,99.90
2019-02-19T22:57:31.061Z,99.90
2019-02-19T22:59:57.270Z,99.90
2019-02-19T23:02:23.902Z,99.90
2019-02-19T23:04:50.116Z,99.90
2019-02-19T23:07:16.355Z,99.90
2019-02-19T23:09:42.602Z,99.90
2019-02-19T23:12:08.835Z,99.90
2019-02-19T23:14:35.062Z,99.90
2019-02-19T23:17:01.278Z,99.90
2019-02-19T23:19:27.490Z,99.90
2019-02-19T23:21:53.706Z,99.90
2019-02-19T23:24:19.928Z,99.90
2019-02-19T23:26:46.231Z,99.90
2019-02-19T23:29:12.443Z,99.90
2019-02-19T23:31:38.666Z,99.90
2019-02-19T23:34:10.906Z,99.90
2019-02-19T23:36:39.034Z,99.90
2019-02-19T23:39:06.042Z,99.90
2019-02-19T23:41:32.452Z,99.90
2019-02-19T23:44:01.510Z,99.90
2019-02-19T23:46:27.734Z,99.90
2019-02-19T23:48:53.938Z,99.90
2019-02-19T23:51:20.174Z,99.90
2019-02-19T23:53:46.378Z,99.90
2019-02-19T23:56:12.591Z,99.90
2019-02-19T23:58:38.861Z,99.90
